To NAV CANADA Home Page Login to a new session Search on AWWS site Feedback and Comments Disclaimer Vers la page française équivalente Tips FAQ What's new on the site To the Forecasts and Observations / NOTAM section To "File a Flight Plan" website Publications and other links Update of the User's profile FIC Telephone Numbers My Weather Data Folder Route Weather Data Regional Weather Data Local Weather Data To the Forecasts and Observations / NOTAM section
Request Generated 12/04/2016 at 22:21:32 UTC . Weather information available at that time is displayed.

METAR/TAF

HAVRE ST-PIERRE/QC    (show WxCam)

METAR CYGV 042200Z AUTO 30003KT 270V360 9SM OVC095 M13/M14 A2997 RMK
SLP155=
METAR CYGV 042100Z AUTO 32004KT 9SM OVC100 M09/M13 A2996 RMK SLP152=
METAR CYGV 042000Z AUTO 34003KT 9SM FEW240 M08/M12 A2995 RMK SLP147=

TAF CYGV 041939Z 0420/0508 35012KT P6SM SKC
RMK FCST BASED ON AUTO OBS. NXT FCST BY 050200Z=
Your time UTC time
Weather data provided by Environment Canada and NAV CANADA